Погода Белый Холмна 2 недели

Смоленская область, Россия

24 мая-06 июня
  • 24мая
    Сегодня
    +7°
    +21°
    Ясно и безоблачно
    ВремяПогодаТемператураВлажностьДавлениеВетер, м/сВероятность осадков
    00:00Ясно и безоблачно+12°C57 %750 мм3.7 м/с2 %
    03:00Ясно и безоблачно+9°C60 %751 мм3.8 м/с2 %
    06:00Ясно и безоблачно+9°C59 %752 мм4.0 м/с2 %
    09:00Ясно и безоблачно+15°C49 %752 мм4.4 м/с2 %
    12:00Ясно и безоблачно+19°C34 %753 мм5.1 м/с2 %
    15:00Ясно и безоблачно+20°C30 %752 мм4.8 м/с2 %
    18:00Ясно и безоблачно+19°C34 %751 мм4.4 м/с2 %
    21:00Ясно и безоблачно+14°C51 %752 мм3.1 м/с2 %
  • 25мая
    Суббота
    +9°
    +23°
    Ясно и безоблачно
    ВремяПогодаТемператураВлажностьДавлениеВетер, м/сВероятность осадков
    00:00Ясно и безоблачно+10°C58 %751 мм3.2 м/с2 %
    03:00Ясно и безоблачно+8°C64 %751 мм3.2 м/с2 %
    06:00Ясно и безоблачно+9°C67 %751 мм3.2 м/с2 %
    09:00Ясно и безоблачно+16°C52 %751 мм2.3 м/с2 %
    12:00Ясно и безоблачно+21°C42 %751 мм2.1 м/с2 %
    15:00Ясно и безоблачно+23°C36 %750 мм2.8 м/с2 %
    18:00Ясно и безоблачно+23°C38 %749 мм2.2 м/с2 %
    21:00Ясно и безоблачно+16°C66 %748 мм2.4 м/с2 %
  • 26мая
    Воскресенье
    +12°
    +24°
    Практически безоблачно
    ВремяПогодаТемператураВлажностьДавлениеВетер, м/сВероятность осадков
    00:00Ясно и безоблачно+13°C66 %748 мм2.7 м/с2 %
    03:00Ясно и безоблачно+10°C75 %748 мм2.0 м/с2 %
    06:00Небольшая облачность+12°C74 %748 мм2.0 м/с2 %
    09:00Ясно и безоблачно+18°C56 %748 мм1.8 м/с2 %
    12:00Ясно и безоблачно+23°C40 %748 мм1.7 м/с2 %
    15:00Практически безоблачно+24°C37 %748 мм1.5 м/с2 %
    18:00Практически безоблачно+23°C39 %747 мм2.0 м/с2 %
    21:00Ясно и безоблачно+18°C59 %747 мм2.2 м/с2 %
  • 27мая
    Понедельник
    +11°
    +24°
    Практически безоблачно
    ВремяПогодаТемператураВлажностьДавлениеВетер, м/сВероятность осадков
    00:00Ясно и безоблачно+15°C68 %747 мм3.3 м/с2 %
    03:00Ясно и безоблачно+14°C84 %748 мм2.8 м/с2 %
    06:00Ясно и безоблачно+14°C88 %748 мм3.1 м/с2 %
    09:00Ясно и безоблачно+19°C72 %749 мм3.1 м/с2 %
    12:00Практически безоблачно+23°C56 %749 мм2.6 м/с21 %
    15:00Практически безоблачно+23°C50 %748 мм2.2 м/с31 %
    18:00Практически безоблачно+22°C52 %748 мм2.2 м/с33 %
    21:00Ясно и безоблачно+19°C68 %747 мм2.2 м/с10 %
  • 28мая
    Вторник
    +11°
    +25°
    Практически безоблачно
    ВремяПогодаТемператураВлажностьДавлениеВетер, м/сВероятность осадков
    00:00Ясно и безоблачно+15°C82 %747 мм2.7 м/с2 %
    03:00Ясно и безоблачно+13°C89 %747 мм2.5 м/с2 %
    06:00Ясно и безоблачно+12°C84 %747 мм2.8 м/с2 %
    09:00Ясно и безоблачно+20°C62 %748 мм2.3 м/с2 %
    12:00Ясно и безоблачно+23°C49 %747 мм3.2 м/с8 %
    15:00Практически безоблачно+25°C41 %747 мм2.8 м/с6 %
    18:00Практически безоблачно+23°C41 %746 мм2.7 м/с9 %
    21:00Практически безоблачно+19°C53 %746 мм3.0 м/с3 %
Мы используем cookies
Соглашаюсь